createdAt,value
2023-01-17T00:02:37.313Z,12.83
2023-01-17T00:07:40.986Z,11.13
2023-01-17T00:12:48.467Z,11.37
2023-01-17T00:17:52.090Z,12.65
2023-01-17T00:22:55.752Z,13.88
2023-01-17T00:27:58.188Z,14.80
2023-01-17T00:33:01.231Z,14.88
2023-01-17T00:38:08.250Z,15.97
2023-01-17T00:43:12.716Z,14.18
2023-01-17T00:48:14.948Z,14.27
2023-01-17T00:53:18.843Z,14.80
2023-01-17T00:58:20.957Z,16.13
2023-01-17T01:03:23.187Z,14.93
2023-01-17T01:08:29.608Z,14.32
2023-01-17T01:13:33.799Z,13.73
2023-01-17T01:18:35.933Z,13.33
2023-01-17T01:23:39.504Z,14.95
2023-01-17T01:28:41.684Z,12.57
2023-01-17T01:33:43.850Z,14.00
2023-01-17T01:38:47.458Z,12.23
2023-01-17T01:43:52.489Z,12.13
2023-01-17T01:48:59.237Z,14.85
2023-01-17T01:54:09.111Z,14.40
2023-01-17T01:59:16.069Z,11.80
2023-01-17T02:04:19.054Z,13.98
2023-01-17T02:09:24.142Z,13.43
2023-01-17T02:14:26.475Z,12.93
2023-01-17T02:20:15.630Z,12.63
2023-01-17T02:25:52.040Z,11.60
2023-01-17T02:31:02.663Z,12.35
2023-01-17T02:36:14.764Z,11.60
2023-01-17T02:41:22.753Z,11.50
2023-01-17T02:46:26.241Z,12.07
2023-01-17T02:52:15.702Z,12.93
2023-01-17T02:57:39.631Z,12.38
2023-01-17T03:02:56.396Z,12.23
2023-01-17T03:08:01.390Z,11.00
2023-01-17T03:13:04.633Z,11.77
2023-01-17T03:18:13.975Z,11.68
2023-01-17T03:23:16.178Z,12.77
2023-01-17T03:28:18.454Z,12.60
2023-01-17T03:33:22.011Z,13.18
2023-01-17T03:38:24.969Z,12.40
2023-01-17T03:43:27.086Z,12.75
2023-01-17T03:48:31.195Z,12.57
2023-01-17T03:53:33.299Z,10.90
2023-01-17T03:58:35.516Z,11.82
2023-01-17T04:03:39.721Z,12.00
2023-01-17T04:08:41.961Z,11.60
2023-01-17T04:13:44.152Z,11.93
2023-01-17T04:18:47.811Z,11.60
2023-01-17T04:23:50.135Z,10.48
2023-01-17T04:28:52.246Z,9.73
2023-01-17T04:33:55.791Z,12.30
2023-01-17T04:38:58.046Z,8.57
2023-01-17T04:44:00.366Z,8.43
2023-01-17T04:49:04.067Z,7.72
2023-01-17T04:54:06.389Z,8.33
2023-01-17T04:59:08.576Z,7.95
2023-01-17T05:04:12.414Z,7.32
2023-01-17T05:09:14.631Z,7.50
2023-01-17T05:14:16.812Z,7.38
2023-01-17T05:19:21.408Z,7.20
2023-01-17T05:24:23.580Z,7.47
2023-01-17T05:29:25.695Z,7.55
2023-01-17T05:34:29.394Z,7.77
2023-01-17T05:39:31.593Z,7.47
2023-01-17T05:44:33.779Z,7.40
2023-01-17T05:49:37.291Z,7.57
2023-01-17T05:54:39.638Z,7.70
2023-01-17T05:59:41.787Z,8.30
2023-01-17T06:04:45.658Z,8.68
2023-01-17T06:09:47.947Z,9.33
2023-01-17T06:14:50.254Z,8.65
2023-01-17T06:19:55.296Z,8.93
2023-01-17T06:25:00.645Z,8.23
2023-01-17T06:30:08.446Z,9.70
2023-01-17T06:35:14.584Z,9.27
2023-01-17T06:40:20.595Z,8.80
2023-01-17T06:45:25.707Z,8.98
2023-01-17T06:50:31.496Z,8.97
2023-01-17T06:55:40.065Z,9.30
2023-01-17T07:00:47.081Z,9.80
2023-01-17T07:06:12.281Z,10.20
2023-01-17T07:11:25.381Z,8.50
2023-01-17T07:16:30.347Z,9.07
2023-01-17T07:21:37.863Z,9.43
2023-01-17T07:26:49.848Z,9.83
2023-01-17T07:31:55.525Z,8.90
2023-01-17T07:37:06.689Z,10.13
2023-01-17T07:42:19.944Z,9.50
2023-01-17T07:47:26.455Z,9.82
2023-01-17T07:52:34.540Z,8.93
2023-01-17T07:57:39.190Z,9.52
2023-01-17T08:02:44.557Z,9.77
2023-01-17T08:07:54.857Z,9.47
2023-01-17T08:13:01.829Z,10.57
2023-01-17T08:18:06.613Z,10.60
2023-01-17T08:23:13.870Z,9.07
2023-01-17T08:28:19.623Z,9.07
2023-01-17T08:33:26.436Z,9.73
2023-01-17T08:38:35.318Z,9.80
2023-01-17T08:43:43.831Z,9.17
2023-01-17T08:48:57.166Z,9.70
2023-01-17T08:54:03.955Z,10.57
2023-01-17T08:59:11.227Z,9.00
2023-01-17T09:04:19.628Z,9.60
2023-01-17T09:09:33.675Z,9.73
2023-01-17T09:14:39.726Z,8.95
2023-01-17T09:19:47.589Z,9.32
2023-01-17T09:24:56.063Z,8.47
2023-01-17T09:30:11.672Z,9.43
2023-01-17T09:35:26.367Z,10.13
2023-01-17T09:41:02.429Z,9.45
2023-01-17T09:46:21.422Z,8.85
2023-01-17T09:51:27.771Z,8.53
2023-01-17T09:56:48.624Z,7.55
2023-01-17T10:02:11.330Z,8.60
2023-01-17T10:07:33.740Z,8.40
2023-01-17T10:13:01.271Z,7.47
2023-01-17T10:18:46.916Z,7.40
2023-01-17T10:24:41.930Z,8.25
2023-01-17T10:29:52.705Z,9.67
2023-01-17T10:35:05.543Z,9.32
2023-01-17T10:40:22.285Z,7.95
2023-01-17T10:45:37.715Z,8.03
2023-01-17T10:50:58.283Z,8.05
2023-01-17T10:56:05.895Z,7.67
2023-01-17T11:01:19.860Z,8.20
2023-01-17T11:06:27.371Z,8.00
2023-01-17T11:11:34.110Z,6.90
2023-01-17T11:16:48.431Z,8.05
2023-01-17T11:21:57.367Z,7.50
2023-01-17T11:27:26.187Z,7.63
2023-01-17T11:32:34.801Z,9.55
2023-01-17T11:37:48.951Z,6.87
2023-01-17T11:43:06.316Z,6.32
2023-01-17T11:48:17.470Z,6.27
2023-01-17T11:53:27.063Z,5.75
2023-01-17T11:58:33.720Z,5.90
2023-01-17T12:04:18.729Z,6.67
2023-01-17T12:09:34.941Z,6.25
2023-01-17T12:15:02.847Z,5.50
2023-01-17T12:20:25.579Z,5.40
2023-01-17T12:32:16.884Z,6.10
2023-01-17T12:37:33.016Z,5.15
2023-01-17T12:42:53.701Z,5.43
2023-01-17T12:48:15.894Z,5.13
2023-01-17T12:53:32.706Z,5.03
2023-01-17T12:58:42.628Z,4.97
2023-01-17T13:03:58.769Z,5.03
2023-01-17T13:09:05.560Z,4.73
2023-01-17T13:14:10.706Z,4.80
2023-01-17T13:19:26.434Z,7.18
2023-01-17T13:24:48.422Z,6.37
2023-01-17T13:30:12.652Z,5.00
2023-01-17T13:35:30.298Z,5.33
2023-01-17T13:40:49.097Z,3.88
2023-01-17T13:45:55.880Z,4.07
2023-01-17T13:51:01.421Z,3.80
2023-01-17T13:56:14.522Z,4.45
2023-01-17T14:01:53.405Z,3.80
2023-01-17T14:07:14.735Z,4.88
2023-01-17T14:12:36.546Z,4.60
2023-01-17T14:17:54.835Z,3.90
2023-01-17T14:23:01.696Z,4.38
2023-01-17T14:28:24.191Z,4.57
2023-01-17T14:33:39.621Z,4.03
2023-01-17T14:38:44.918Z,4.10
2023-01-17T14:43:51.877Z,3.47
2023-01-17T14:49:02.048Z,4.07
2023-01-17T14:54:18.947Z,4.03
2023-01-17T14:59:23.058Z,4.78
2023-01-17T15:04:28.345Z,4.10
2023-01-17T15:09:42.196Z,3.20
2023-01-17T15:14:47.193Z,4.35
2023-01-17T15:19:56.682Z,4.40
2023-01-17T15:25:00.126Z,3.80
2023-01-17T15:30:06.485Z,4.65
2023-01-17T15:35:17.961Z,4.80
2023-01-17T15:40:24.071Z,3.88
2023-01-17T15:45:30.714Z,4.20
2023-01-17T15:50:38.664Z,3.20
2023-01-17T15:55:47.747Z,4.05
2023-01-17T16:00:51.603Z,4.03
2023-01-17T16:05:58.003Z,4.20
2023-01-17T16:11:03.541Z,4.50
2023-01-17T16:16:17.657Z,4.80
2023-01-17T16:21:26.488Z,5.97
2023-01-17T16:26:28.920Z,6.13
2023-01-17T16:31:33.218Z,5.72
2023-01-17T16:36:35.782Z,6.07
2023-01-17T16:41:38.267Z,5.57
2023-01-17T16:46:42.114Z,5.50
2023-01-17T16:51:46.918Z,5.53
2023-01-17T16:56:49.414Z,5.35
2023-01-17T17:01:53.276Z,5.10
2023-01-17T17:06:55.551Z,5.63
2023-01-17T17:11:58.219Z,5.05
2023-01-17T17:17:04.691Z,5.60
2023-01-17T17:22:07.219Z,5.05
2023-01-17T17:27:09.797Z,5.10
2023-01-17T17:32:16.732Z,4.25
2023-01-17T17:37:19.510Z,4.40
2023-01-17T17:42:21.855Z,4.93
2023-01-17T17:47:26.322Z,5.30
2023-01-17T17:52:28.615Z,6.13
2023-01-17T17:57:31.007Z,4.35
2023-01-17T18:02:34.668Z,4.13
2023-01-17T18:07:36.848Z,4.47
2023-01-17T18:12:39.149Z,3.92
2023-01-17T18:17:42.844Z,4.73
2023-01-17T18:22:45.149Z,5.53
2023-01-17T18:27:47.629Z,6.25
2023-01-17T18:32:51.189Z,4.83
2023-01-17T18:37:53.682Z,5.40
2023-01-17T18:42:58.828Z,6.70
2023-01-17T18:48:03.034Z,6.15
2023-01-17T18:53:05.197Z,4.93
2023-01-17T18:58:08.300Z,4.00
2023-01-17T19:03:12.222Z,4.35
2023-01-17T19:08:15.759Z,5.27
2023-01-17T19:13:18.253Z,5.13
2023-01-17T19:18:21.781Z,4.60
2023-01-17T19:23:23.980Z,4.00
2023-01-17T19:28:26.281Z,5.07
2023-01-17T19:33:29.837Z,4.97
2023-01-17T19:38:33.896Z,4.65
2023-01-17T19:43:36.786Z,4.95
2023-01-17T19:48:40.539Z,5.83
2023-01-17T19:53:43.070Z,5.30
2023-01-17T19:58:46.662Z,6.70
2023-01-17T20:03:51.800Z,7.57
2023-01-17T20:08:54.342Z,7.10
2023-01-17T20:13:59.050Z,6.67
2023-01-17T20:19:03.645Z,9.80
2023-01-17T20:24:10.124Z,9.97
2023-01-17T20:29:16.586Z,8.43
2023-01-17T20:34:21.500Z,9.60
2023-01-17T20:39:23.854Z,13.20
2023-01-17T20:44:26.370Z,11.75
2023-01-17T20:49:30.023Z,12.63
2023-01-17T20:54:32.183Z,15.95
2023-01-17T20:59:35.272Z,12.27
2023-01-17T21:05:08.360Z,10.20
2023-01-17T21:10:12.068Z,9.55
2023-01-17T21:15:14.786Z,10.67
2023-01-17T21:20:19.040Z,10.82
2023-01-17T21:25:21.343Z,10.02
2023-01-17T21:30:23.665Z,9.93
2023-01-17T21:35:27.356Z,10.07
2023-01-17T21:40:29.675Z,10.93
2023-01-17T21:45:31.891Z,9.90
2023-01-17T21:50:35.813Z,11.40
2023-01-17T21:55:38.437Z,10.67
2023-01-17T22:00:43.078Z,9.57
2023-01-17T22:05:46.649Z,9.57
2023-01-17T22:10:48.807Z,11.85
2023-01-17T22:15:59.070Z,13.82
2023-01-17T22:21:07.749Z,12.07
2023-01-17T22:26:11.755Z,11.75
2023-01-17T22:31:18.122Z,11.10
2023-01-17T22:36:22.611Z,10.25
2023-01-17T22:41:28.680Z,9.75
2023-01-17T22:46:33.900Z,7.93
2023-01-17T22:51:37.511Z,9.60
2023-01-17T22:56:39.667Z,9.20
2023-01-17T23:01:41.833Z,9.57
2023-01-17T23:06:45.472Z,9.70
2023-01-17T23:11:50.106Z,8.70
2023-01-17T23:16:54.523Z,8.38
2023-01-17T23:21:59.967Z,15.57
2023-01-17T23:27:02.213Z,20.17
2023-01-17T23:32:04.983Z,14.63
2023-01-17T23:37:08.633Z,11.50
2023-01-17T23:42:10.892Z,11.30
2023-01-17T23:47:13.010Z,9.93
2023-01-17T23:52:16.676Z,11.13
2023-01-17T23:57:18.922Z,11.20
